createdAt,value
2022-08-10T00:01:51.205Z,2.50
2022-08-10T00:04:23.724Z,2.35
2022-08-10T00:06:53.601Z,2.10
2022-08-10T00:09:22.178Z,2.00
2022-08-10T00:11:49.488Z,2.28
2022-08-10T00:14:16.755Z,2.33
2022-08-10T00:16:43.937Z,2.22
2022-08-10T00:19:11.156Z,2.33
2022-08-10T00:21:38.344Z,2.20
2022-08-10T00:24:05.470Z,2.42
2022-08-10T00:27:58.522Z,2.33
2022-08-10T00:29:20.094Z,2.05
2022-08-10T00:31:58.226Z,2.25
2022-08-10T00:34:28.348Z,2.00
2022-08-10T00:36:56.479Z,2.70
2022-08-10T00:39:24.023Z,2.17
2022-08-10T00:42:02.214Z,2.75
2022-08-10T00:44:43.610Z,2.20
2022-08-10T00:47:22.767Z,2.25
2022-08-10T00:50:00.945Z,2.30
2022-08-10T00:52:31.596Z,2.72
2022-08-10T00:55:00.715Z,2.88
2022-08-10T00:57:28.072Z,4.82
2022-08-10T00:59:57.839Z,6.35
2022-08-10T01:02:32.660Z,4.30
2022-08-10T01:05:03.205Z,4.40
2022-08-10T01:07:52.509Z,2.58
2022-08-10T01:10:55.001Z,3.00
2022-08-10T01:13:25.450Z,2.45
2022-08-10T01:15:58.348Z,3.10
2022-08-10T01:18:38.402Z,2.33
2022-08-10T01:21:24.189Z,2.63
2022-08-10T01:24:13.151Z,2.78
2022-08-10T01:26:47.765Z,2.72
2022-08-10T01:29:28.801Z,3.00
2022-08-10T01:32:03.628Z,3.03
2022-08-10T01:34:40.099Z,3.83
2022-08-10T01:37:14.858Z,2.80
2022-08-10T01:39:47.340Z,3.40
2022-08-10T01:42:18.635Z,3.55
2022-08-10T01:44:55.602Z,4.13
2022-08-10T01:47:46.543Z,4.78
2022-08-10T01:50:23.003Z,2.60
2022-08-10T01:52:53.317Z,3.20
2022-08-10T01:55:21.609Z,3.20
2022-08-10T01:57:51.090Z,2.50
2022-08-10T02:00:19.252Z,3.08
2022-08-10T02:02:47.951Z,3.20
2022-08-10T02:05:16.907Z,2.63
2022-08-10T02:07:47.094Z,2.40
2022-08-10T02:10:19.356Z,2.08
2022-08-10T02:12:48.442Z,2.30
2022-08-10T02:15:19.670Z,2.55
2022-08-10T02:18:01.884Z,2.08
2022-08-10T02:20:35.363Z,2.25
2022-08-10T02:23:08.814Z,1.90
2022-08-10T02:25:41.951Z,2.38
2022-08-10T02:28:29.970Z,2.05
2022-08-10T02:31:11.618Z,2.30
2022-08-10T02:33:56.495Z,2.15
2022-08-10T02:36:29.659Z,2.25
2022-08-10T02:39:01.175Z,2.20
2022-08-10T02:45:12.667Z,2.70
2022-08-10T02:45:24.118Z,2.65
2022-08-10T02:47:50.825Z,2.42
2022-08-10T02:50:29.500Z,2.25
2022-08-10T02:53:56.155Z,2.47
2022-08-10T02:56:30.967Z,2.83
2022-08-10T02:59:29.005Z,3.20
2022-08-10T03:02:10.575Z,2.80
2022-08-10T03:04:56.161Z,2.63
2022-08-10T03:07:43.478Z,2.28
2022-08-10T03:10:41.400Z,2.33
2022-08-10T03:13:10.719Z,2.30
2022-08-10T03:15:40.239Z,2.15
2022-08-10T03:18:09.122Z,2.42
2022-08-10T03:20:40.327Z,2.33
2022-08-10T03:23:14.132Z,2.63
2022-08-10T03:25:53.407Z,2.47
2022-08-10T03:28:24.219Z,3.13
2022-08-10T03:30:53.315Z,3.08
2022-08-10T03:33:22.514Z,2.47
2022-08-10T03:36:43.261Z,2.65
2022-08-10T03:38:40.987Z,2.33
2022-08-10T03:41:15.955Z,2.20
2022-08-10T03:43:47.871Z,2.20
2022-08-10T03:48:49.209Z,2.58
2022-08-10T03:51:19.721Z,2.55
2022-08-10T03:54:05.627Z,2.40
2022-08-10T03:56:39.092Z,2.55
2022-08-10T03:59:09.930Z,2.53
2022-08-10T04:02:46.396Z,2.63
2022-08-10T04:04:25.912Z,2.20
2022-08-10T04:06:56.010Z,2.15
2022-08-10T04:09:54.227Z,2.58
2022-08-10T04:12:20.448Z,2.58
2022-08-10T04:14:51.040Z,2.50
2022-08-10T04:18:05.222Z,2.65
2022-08-10T04:20:50.194Z,2.30
2022-08-10T04:23:24.545Z,2.92
2022-08-10T04:25:56.130Z,2.55
2022-08-10T04:28:24.498Z,2.72
2022-08-10T04:30:54.073Z,2.85
2022-08-10T04:33:23.619Z,2.38
2022-08-10T04:35:52.562Z,2.20
2022-08-10T04:38:21.468Z,2.38
2022-08-10T04:40:49.198Z,2.33
2022-08-10T04:43:16.558Z,2.40
2022-08-10T04:45:48.612Z,2.22
2022-08-10T04:48:43.482Z,2.30
2022-08-10T04:51:20.927Z,2.15
2022-08-10T04:54:02.683Z,2.00
2022-08-10T04:57:03.052Z,1.92
2022-08-10T04:59:30.207Z,2.40
2022-08-10T05:02:22.252Z,2.92
2022-08-10T05:04:44.746Z,2.50
2022-08-10T05:07:17.125Z,2.33
2022-08-10T05:10:02.190Z,2.08
2022-08-10T05:12:38.834Z,2.40
2022-08-10T05:15:14.705Z,2.50
2022-08-10T05:18:06.802Z,2.30
2022-08-10T05:20:33.961Z,2.10
2022-08-10T05:23:01.299Z,2.55
2022-08-10T05:25:29.912Z,2.15
2022-08-10T05:28:04.410Z,2.28
2022-08-10T05:30:34.429Z,2.20
2022-08-10T05:33:05.256Z,2.45
2022-08-10T05:35:56.297Z,2.25
2022-08-10T05:38:26.741Z,2.35
2022-08-10T05:40:54.730Z,2.13
2022-08-10T05:43:22.450Z,2.42
2022-08-10T05:46:16.809Z,2.03
2022-08-10T05:48:56.759Z,2.30
2022-08-10T05:51:29.428Z,2.35
2022-08-10T05:54:04.162Z,2.20
2022-08-10T05:56:54.191Z,2.60
2022-08-10T06:00:12.615Z,2.05
2022-08-10T06:02:33.206Z,2.70
2022-08-10T06:05:11.484Z,2.35
2022-08-10T06:07:42.838Z,2.42
2022-08-10T06:12:53.956Z,2.15
2022-08-10T06:15:50.802Z,2.40
2022-08-10T06:18:17.253Z,2.38
2022-08-10T06:20:46.178Z,2.70
2022-08-10T06:23:14.904Z,2.65
2022-08-10T06:26:12.269Z,2.67
2022-08-10T06:28:34.148Z,2.10
2022-08-10T06:31:04.749Z,2.35
2022-08-10T06:33:34.954Z,2.45
2022-08-10T06:36:04.161Z,2.47
2022-08-10T06:38:34.035Z,2.45
2022-08-10T06:41:08.628Z,2.60
2022-08-10T06:43:40.717Z,2.40
2022-08-10T06:46:15.662Z,3.10
2022-08-10T06:48:57.667Z,3.13
2022-08-10T06:51:30.984Z,3.05
2022-08-10T06:54:02.453Z,3.38
2022-08-10T06:56:36.708Z,2.85
2022-08-10T06:59:22.863Z,3.53
2022-08-10T07:01:55.082Z,3.45
2022-08-10T07:04:32.456Z,3.63
2022-08-10T07:07:06.672Z,3.30
2022-08-10T07:09:40.415Z,3.40
2022-08-10T07:12:09.970Z,3.13
2022-08-10T07:14:40.813Z,3.40
2022-08-10T07:17:15.152Z,3.42
2022-08-10T07:19:56.165Z,3.03
2022-08-10T07:23:22.774Z,3.15
2022-08-10T07:25:25.639Z,2.90
2022-08-10T07:28:00.108Z,3.58
2022-08-10T07:30:37.429Z,3.85
2022-08-10T07:33:06.424Z,4.15
2022-08-10T07:35:42.791Z,3.88
2022-08-10T07:38:17.707Z,3.42
2022-08-10T07:40:48.793Z,3.38
2022-08-10T07:43:18.223Z,3.45
2022-08-10T07:45:48.012Z,3.53
2022-08-10T07:48:47.454Z,3.05
2022-08-10T07:51:18.680Z,2.50
2022-08-10T07:53:51.530Z,2.78
2022-08-10T07:56:47.407Z,2.63
2022-08-10T07:59:15.105Z,2.88
2022-08-10T08:01:53.503Z,2.80
2022-08-10T08:04:24.365Z,2.83
2022-08-10T08:06:53.338Z,2.63
2022-08-10T08:09:22.208Z,2.92
2022-08-10T08:11:53.429Z,2.58
2022-08-10T08:16:52.940Z,2.20
2022-08-10T08:19:37.690Z,2.00
2022-08-10T08:24:09.602Z,2.13
2022-08-10T08:24:59.325Z,3.03
2022-08-10T08:27:29.006Z,2.40
2022-08-10T08:29:56.414Z,2.55
2022-08-10T08:32:26.654Z,2.55
2022-08-10T08:35:02.689Z,2.57
2022-08-10T08:38:33.202Z,2.30
2022-08-10T08:40:35.351Z,2.38
2022-08-10T08:43:21.601Z,2.53
2022-08-10T08:46:13.186Z,2.15
2022-08-10T08:48:55.527Z,2.20
2022-08-10T08:52:09.870Z,2.80
2022-08-10T08:54:57.677Z,2.70
2022-08-10T08:57:51.708Z,2.05
2022-08-10T09:00:41.744Z,1.92
2022-08-10T09:03:47.382Z,2.63
2022-08-10T09:06:26.987Z,1.80
2022-08-10T09:09:15.621Z,1.98
2022-08-10T09:12:11.270Z,1.77
2022-08-10T09:14:52.848Z,2.40
2022-08-10T09:17:35.583Z,2.38
2022-08-10T09:20:22.652Z,1.90
2022-08-10T09:22:57.307Z,1.80
2022-08-10T09:25:32.516Z,1.83
2022-08-10T09:28:05.606Z,2.00
2022-08-10T09:31:10.808Z,2.22
2022-08-10T09:36:22.799Z,2.35
2022-08-10T09:37:02.691Z,1.90
2022-08-10T09:40:48.472Z,1.90
2022-08-10T09:43:14.261Z,1.73
2022-08-10T09:45:45.890Z,2.05
2022-08-10T09:48:30.525Z,2.42
2022-08-10T09:51:44.314Z,1.92
2022-08-10T09:54:39.763Z,1.98
2022-08-10T09:57:44.467Z,2.25
2022-08-10T10:00:21.827Z,1.90
2022-08-10T10:03:04.132Z,2.00
2022-08-10T10:05:51.105Z,1.77
2022-08-10T10:08:43.077Z,2.10
2022-08-10T10:11:42.380Z,1.95
2022-08-10T10:14:21.796Z,1.90
2022-08-10T10:17:09.340Z,2.05
2022-08-10T10:19:56.487Z,1.80
2022-08-10T10:22:29.703Z,1.90
2022-08-10T10:24:56.972Z,1.90
2022-08-10T10:27:48.225Z,1.77
2022-08-10T10:30:17.361Z,1.90
2022-08-10T10:33:03.267Z,1.73
2022-08-10T10:35:55.112Z,1.92
2022-08-10T10:38:28.976Z,1.63
2022-08-10T10:41:14.127Z,1.98
2022-08-10T10:43:50.480Z,1.75
2022-08-10T10:46:29.988Z,1.70
2022-08-10T10:49:38.228Z,1.60
2022-08-10T10:52:18.384Z,1.75
2022-08-10T10:54:55.793Z,1.90
2022-08-10T10:57:59.318Z,1.95
2022-08-10T11:00:24.163Z,1.60
2022-08-10T11:03:48.702Z,1.85
2022-08-10T11:06:52.723Z,1.63
2022-08-10T11:10:06.977Z,1.95
2022-08-10T11:12:45.110Z,1.67
2022-08-10T11:15:28.567Z,1.60
2022-08-10T11:18:01.878Z,1.58
2022-08-10T11:20:42.733Z,1.58
2022-08-10T11:23:31.797Z,1.63
2022-08-10T11:26:22.853Z,1.50
2022-08-10T11:28:58.092Z,1.70
2022-08-10T11:31:34.127Z,1.83
2022-08-10T11:34:47.062Z,1.88
2022-08-10T11:37:05.667Z,1.60
2022-08-10T11:39:48.620Z,1.95
2022-08-10T11:42:36.137Z,2.33
2022-08-10T11:45:12.251Z,1.95
2022-08-10T11:47:56.988Z,1.50
2022-08-10T11:50:45.760Z,1.70
2022-08-10T11:53:22.545Z,4.13
2022-08-10T11:55:55.894Z,1.70
2022-08-10T11:58:48.073Z,1.70
2022-08-10T12:01:20.845Z,1.27
2022-08-10T12:03:49.270Z,1.77
2022-08-10T12:06:39.230Z,1.52
2022-08-10T12:10:10.473Z,1.30
2022-08-10T12:11:59.418Z,1.48
2022-08-10T12:14:46.518Z,1.70
2022-08-10T12:17:22.974Z,1.42
2022-08-10T12:20:16.455Z,1.42
2022-08-10T12:22:50.796Z,1.52
2022-08-10T12:25:56.080Z,1.35
2022-08-10T12:28:50.783Z,1.65
2022-08-10T12:31:18.773Z,1.60
2022-08-10T12:34:29.534Z,1.33
2022-08-10T12:37:22.699Z,1.48
2022-08-10T12:40:33.982Z,1.67
2022-08-10T12:44:04.323Z,1.83
2022-08-10T12:46:32.964Z,1.23
2022-08-10T12:49:13.556Z,1.50
2022-08-10T12:51:49.641Z,1.40
2022-08-10T12:54:33.000Z,1.33
2022-08-10T12:57:07.862Z,1.30
2022-08-10T12:59:43.423Z,1.25
2022-08-10T13:02:28.993Z,1.40
2022-08-10T13:04:59.361Z,1.15
2022-08-10T13:08:24.231Z,1.20
2022-08-10T13:10:21.189Z,1.30
2022-08-10T13:12:52.705Z,1.25
2022-08-10T13:15:50.043Z,1.80
2022-08-10T13:18:40.888Z,1.65
2022-08-10T13:21:20.419Z,1.20
2022-08-10T13:26:38.934Z,1.55
2022-08-10T13:29:28.221Z,2.22
2022-08-10T13:32:09.659Z,1.50
2022-08-10T13:34:46.511Z,1.27
2022-08-10T13:37:19.491Z,1.30
2022-08-10T13:39:58.351Z,1.30
2022-08-10T13:42:33.027Z,1.40
2022-08-10T13:45:07.790Z,1.70
2022-08-10T13:47:47.913Z,1.25
2022-08-10T13:50:33.195Z,1.27
2022-08-10T13:53:09.997Z,1.15
2022-08-10T13:55:55.514Z,1.48
2022-08-10T13:58:29.558Z,1.23
2022-08-10T14:00:59.819Z,0.95
2022-08-10T14:03:28.697Z,1.20
2022-08-10T14:05:58.425Z,1.40
2022-08-10T14:08:29.480Z,1.42
2022-08-10T14:13:44.503Z,1.20
2022-08-10T14:16:13.591Z,1.00
2022-08-10T14:18:44.962Z,1.20
2022-08-10T14:21:14.750Z,1.50
2022-08-10T14:23:48.593Z,1.20
2022-08-10T14:26:24.919Z,1.08
2022-08-10T14:29:02.569Z,1.30
2022-08-10T14:31:33.845Z,1.52
2022-08-10T14:34:06.097Z,1.73
2022-08-10T14:36:51.250Z,1.20
2022-08-10T14:39:26.884Z,1.33
2022-08-10T14:42:03.105Z,1.10
2022-08-10T14:44:48.679Z,1.38
2022-08-10T14:47:53.245Z,1.15
2022-08-10T14:50:09.835Z,1.38
2022-08-10T14:52:44.146Z,1.33
2022-08-10T14:55:19.560Z,1.25
2022-08-10T14:58:20.399Z,1.10
2022-08-10T15:00:43.008Z,1.50
2022-08-10T15:04:01.027Z,1.50
2022-08-10T15:06:18.082Z,1.38
2022-08-10T15:08:47.521Z,1.38
2022-08-10T15:12:12.382Z,1.20
2022-08-10T15:14:29.332Z,1.27
2022-08-10T15:16:55.340Z,1.50
2022-08-10T15:20:01.767Z,1.45
2022-08-10T15:22:36.571Z,1.27
2022-08-10T15:25:18.227Z,1.42
2022-08-10T15:27:53.418Z,1.23
2022-08-10T15:30:33.202Z,1.40
2022-08-10T15:33:59.515Z,1.67
2022-08-10T15:36:34.949Z,1.40
2022-08-10T15:39:58.377Z,1.60
2022-08-10T15:42:02.858Z,1.25
2022-08-10T15:44:39.807Z,1.40
2022-08-10T15:47:27.239Z,1.23
2022-08-10T15:50:31.499Z,1.20
2022-08-10T15:53:08.315Z,1.30
2022-08-10T15:55:49.841Z,1.30
2022-08-10T15:58:40.011Z,1.23
2022-08-10T16:02:15.119Z,1.40
2022-08-10T16:04:10.903Z,1.40
2022-08-10T16:06:49.806Z,1.33
2022-08-10T16:10:24.136Z,1.50
2022-08-10T16:12:17.463Z,1.30
2022-08-10T16:15:00.260Z,1.40
2022-08-10T16:17:28.826Z,1.30
2022-08-10T16:19:58.812Z,1.35
2022-08-10T16:22:37.227Z,1.65
2022-08-10T16:25:14.506Z,1.58
2022-08-10T16:27:44.179Z,1.65
2022-08-10T16:30:12.466Z,1.35
2022-08-10T16:32:41.694Z,1.13
2022-08-10T16:35:15.657Z,1.70
2022-08-10T16:37:57.908Z,1.35
2022-08-10T16:40:29.705Z,1.30
2022-08-10T16:43:00.131Z,1.38
2022-08-10T16:45:41.602Z,1.35
2022-08-10T16:48:12.227Z,1.38
2022-08-10T16:50:51.360Z,1.20
2022-08-10T16:53:21.395Z,1.30
2022-08-10T16:55:52.707Z,1.50
2022-08-10T16:58:27.541Z,1.20
2022-08-10T17:01:02.601Z,1.13
2022-08-10T17:04:07.744Z,3.20
2022-08-10T17:06:30.779Z,1.57
2022-08-10T17:09:00.947Z,1.38
2022-08-10T17:11:31.853Z,1.63
2022-08-10T17:14:01.307Z,1.10
2022-08-10T17:16:38.597Z,1.45
2022-08-10T17:19:13.255Z,1.35
2022-08-10T17:21:51.390Z,1.20
2022-08-10T17:24:23.991Z,1.45
2022-08-10T17:26:51.681Z,1.27
2022-08-10T17:29:58.523Z,1.30
2022-08-10T17:32:13.644Z,1.10
2022-08-10T17:34:46.853Z,1.17
2022-08-10T17:37:20.146Z,1.30
2022-08-10T17:39:56.353Z,1.13
2022-08-10T17:42:25.739Z,1.73
2022-08-10T17:44:54.457Z,1.00
2022-08-10T17:47:25.346Z,1.20
2022-08-10T17:49:59.209Z,1.58
2022-08-10T17:52:31.988Z,1.55
2022-08-10T17:55:07.852Z,1.08
2022-08-10T17:57:37.948Z,1.15
2022-08-10T18:00:13.188Z,1.10
2022-08-10T18:02:44.086Z,1.35
2022-08-10T18:05:12.911Z,1.40
2022-08-10T18:07:50.742Z,1.30
2022-08-10T18:10:21.345Z,1.50
2022-08-10T18:12:56.134Z,1.00
2022-08-10T18:15:28.218Z,1.30
2022-08-10T18:18:03.316Z,1.20
2022-08-10T18:20:39.725Z,0.93
2022-08-10T18:23:08.525Z,1.05
2022-08-10T18:25:39.769Z,1.10
2022-08-10T18:28:19.352Z,0.95
2022-08-10T18:30:51.502Z,1.15
2022-08-10T18:33:24.314Z,0.93
2022-08-10T18:35:53.492Z,1.00
2022-08-10T18:38:22.451Z,0.88
2022-08-10T18:41:27.453Z,1.60
2022-08-10T18:44:12.213Z,0.80
2022-08-10T18:47:00.037Z,1.00
2022-08-10T18:49:39.267Z,1.02
2022-08-10T18:52:12.406Z,1.00
2022-08-10T18:54:51.517Z,0.93
2022-08-10T18:57:46.513Z,1.10
2022-08-10T19:00:18.058Z,0.88
2022-08-10T19:03:03.183Z,0.80
2022-08-10T19:05:59.193Z,0.93
2022-08-10T19:08:48.856Z,1.00
2022-08-10T19:12:02.351Z,0.90
2022-08-10T19:14:37.260Z,0.65
2022-08-10T19:17:19.786Z,0.70
2022-08-10T19:19:52.898Z,0.80
2022-08-10T19:22:26.456Z,0.80
2022-08-10T19:25:01.481Z,0.70
2022-08-10T19:27:33.314Z,0.70
2022-08-10T19:30:12.787Z,0.80
2022-08-10T19:33:05.674Z,0.80
2022-08-10T19:36:03.567Z,0.77
2022-08-10T19:38:50.266Z,1.08
2022-08-10T19:41:32.179Z,0.80
2022-08-10T19:44:31.509Z,0.70
2022-08-10T19:47:31.027Z,0.80
2022-08-10T19:50:19.476Z,0.93
2022-08-10T19:53:04.553Z,0.70
2022-08-10T19:56:43.593Z,0.70
2022-08-10T20:00:15.165Z,0.80
2022-08-10T20:02:22.124Z,0.63
2022-08-10T20:05:06.038Z,0.80
2022-08-10T20:07:42.592Z,0.70
2022-08-10T20:10:26.828Z,0.80
2022-08-10T20:13:15.011Z,1.00
2022-08-10T20:15:48.153Z,0.60
2022-08-10T20:18:26.346Z,0.70
2022-08-10T20:21:08.746Z,0.88
2022-08-10T20:23:36.867Z,0.75
2022-08-10T20:26:45.276Z,0.90
2022-08-10T20:29:57.467Z,0.77
2022-08-10T20:32:14.094Z,0.93
2022-08-10T20:34:57.137Z,0.55
2022-08-10T20:38:03.014Z,1.17
2022-08-10T20:40:29.260Z,0.80
2022-08-10T20:42:59.576Z,0.70
2022-08-10T20:45:41.525Z,0.93
2022-08-10T20:48:28.866Z,0.68
2022-08-10T20:51:00.959Z,0.80
2022-08-10T20:53:31.999Z,1.00
2022-08-10T20:56:08.380Z,0.70
2022-08-10T20:58:54.652Z,0.95
2022-08-10T21:02:06.116Z,0.95
2022-08-10T21:04:53.370Z,0.80
2022-08-10T21:07:50.571Z,0.80
2022-08-10T21:10:26.389Z,0.60
2022-08-10T21:13:12.142Z,0.82
2022-08-10T21:16:14.082Z,0.77
2022-08-10T21:19:00.234Z,0.90
2022-08-10T21:21:41.980Z,0.90
2022-08-10T21:24:19.950Z,0.80
2022-08-10T21:27:02.505Z,0.93
2022-08-10T21:30:09.303Z,0.80
2022-08-10T21:32:59.086Z,0.80
2022-08-10T21:35:42.644Z,1.10
2022-08-10T21:38:37.966Z,0.82
2022-08-10T21:41:57.157Z,0.70
2022-08-10T21:45:17.108Z,0.80
2022-08-10T21:48:18.120Z,1.88
2022-08-10T21:55:13.462Z,2.80
2022-08-10T21:58:12.295Z,1.38
2022-08-10T22:03:59.823Z,0.90
2022-08-10T22:06:52.344Z,0.70
2022-08-10T22:09:47.555Z,0.70
2022-08-10T22:12:36.403Z,0.60
2022-08-10T22:16:03.177Z,0.75
2022-08-10T22:18:35.015Z,0.77
2022-08-10T22:21:54.484Z,0.80
2022-08-10T22:25:24.121Z,1.05
2022-08-10T22:28:13.629Z,0.85
2022-08-10T22:31:28.837Z,1.85
2022-08-10T22:31:32.548Z,0.60
2022-08-10T22:34:42.859Z,0.70
2022-08-10T22:37:52.111Z,0.88
2022-08-10T22:40:40.879Z,1.25
2022-08-10T22:43:36.205Z,0.80
2022-08-10T22:46:31.090Z,0.88
2022-08-10T22:49:01.868Z,1.10
2022-08-10T22:51:36.679Z,0.90
2022-08-10T22:54:49.997Z,0.70
2022-08-10T22:57:36.293Z,0.82
2022-08-10T23:00:20.431Z,0.70
2022-08-10T23:03:21.834Z,1.35
2022-08-10T23:06:04.008Z,0.93
2022-08-10T23:08:43.881Z,0.68
2022-08-10T23:11:26.589Z,0.80
2022-08-10T23:14:00.951Z,0.77
2022-08-10T23:16:50.210Z,0.80
2022-08-10T23:19:25.139Z,0.70
2022-08-10T23:22:04.151Z,0.60
2022-08-10T23:24:38.738Z,0.65
2022-08-10T23:27:12.920Z,0.80
2022-08-10T23:30:10.003Z,0.80
2022-08-10T23:32:43.963Z,0.77
2022-08-10T23:36:31.339Z,0.90
2022-08-10T23:38:05.170Z,0.63
2022-08-10T23:40:34.301Z,0.80
2022-08-10T23:43:03.499Z,0.80
2022-08-10T23:45:53.080Z,1.25
2022-08-10T23:48:23.243Z,0.95
2022-08-10T23:50:59.628Z,1.00
2022-08-10T23:53:32.000Z,1.10
2022-08-10T23:56:08.339Z,1.00
2022-08-10T23:58:41.106Z,0.90
